Time;durP1;ratioP1;P1;durP2;ratioP2;P2;SDS_P1;SDS_P2;PMS_P1;PMS_P2;Temp;Humidity;BMP_temperature;BMP_pressure;BME280_temperature;BME280_humidity;BME280_pressure;Samples;Min_cycle;Max_cycle;Signal;HPM_P1;HPM_P2
2021/07/31 00:16:18;;;;;;;9.77;8.77;;;20.70;99.90;;;;;;5045413;28;20523;-89
2021/07/31 00:19:27;;;;;;;12.90;10.07;;;20.80;99.90;;;;;;4926987;29;20834;-89
2021/07/31 00:22:25;;;;;;;11.73;9.63;;;20.70;99.90;;;;;;4928722;28;20529;-89
2021/07/31 00:28:49;;;;;;;9.43;8.30;;;20.80;99.90;;;;;;4939623;28;20423;-89
2021/07/31 00:34:58;;;;;;;8.40;7.50;;;20.80;99.90;;;;;;4994296;28;20439;-89
2021/07/31 00:37:56;;;;;;;7.33;6.37;;;20.90;99.90;;;;;;5027365;28;20845;-89
2021/07/31 00:40:27;;;;;;;6.03;5.50;;;21.00;99.90;;;;;;5025447;28;20853;-89
2021/07/31 00:43:07;;;;;;;5.57;5.10;;;21.00;99.90;;;;;;5030782;28;20489;-85
2021/07/31 00:46:12;;;;;;;4.00;3.63;;;21.10;99.90;;;;;;5038121;28;20440;-87
2021/07/31 00:48:41;;;;;;;4.23;3.83;;;21.10;99.90;;;;;;5054613;22;20488;-86
2021/07/31 00:51:07;;;;;;;5.20;3.90;;;21.10;99.90;;;;;;5040410;28;20873;-86
2021/07/31 00:53:34;;;;;;;3.23;2.93;;;21.00;99.90;;;;;;5038229;28;20449;-87
2021/07/31 00:56:01;;;;;;;5.60;4.27;;;20.90;99.90;;;;;;5038574;28;20442;-86
2021/07/31 00:58:28;;;;;;;4.60;3.67;;;21.00;99.90;;;;;;5041180;28;20470;-86
2021/07/31 01:00:55;;;;;;;3.90;3.60;;;20.90;99.90;;;;;;5042035;28;20494;-86
2021/07/31 01:03:21;;;;;;;4.07;3.67;;;20.90;99.90;;;;;;5034848;28;20453;-87
2021/07/31 01:05:50;;;;;;;4.53;3.77;;;20.90;99.90;;;;;;5020146;28;20446;-86
2021/07/31 01:08:17;;;;;;;5.33;3.80;;;21.00;99.90;;;;;;5025978;28;20474;-87
2021/07/31 01:10:44;;;;;;;5.47;4.10;;;20.90;99.90;;;;;;5017535;28;20471;-87
2021/07/31 01:13:12;;;;;;;4.97;4.03;;;21.00;99.90;;;;;;5018614;28;20482;-88
2021/07/31 01:15:56;;;;;;;4.00;3.63;;;21.00;99.90;;;;;;5016564;28;20446;-88
2021/07/31 01:18:23;;;;;;;5.87;4.10;;;21.00;99.90;;;;;;5016942;28;20468;-88
2021/07/31 01:20:51;;;;;;;4.13;3.37;;;21.00;99.90;;;;;;5016991;28;21066;-88
2021/07/31 01:23:19;;;;;;;4.70;3.60;;;21.00;99.90;;;;;;5024324;28;20460;-87
2021/07/31 01:25:45;;;;;;;6.23;3.53;;;21.00;99.90;;;;;;5036463;28;20452;-88
2021/07/31 01:28:12;;;;;;;6.60;5.00;;;21.00;99.90;;;;;;5036380;28;20489;-86
2021/07/31 01:30:39;;;;;;;6.50;3.87;;;21.00;99.90;;;;;;5036707;28;20441;-87
2021/07/31 01:33:06;;;;;;;5.03;3.10;;;21.00;99.90;;;;;;5029643;28;20500;-87
2021/07/31 01:35:33;;;;;;;4.43;3.60;;;20.90;99.90;;;;;;5026070;28;20444;-87
2021/07/31 01:38:01;;;;;;;3.20;2.90;;;20.90;99.90;;;;;;5036061;28;20445;-86
2021/07/31 01:40:30;;;;;;;4.23;2.80;;;20.90;99.90;;;;;;5036120;28;20453;-87
2021/07/31 01:42:57;;;;;;;5.43;3.47;;;20.90;99.90;;;;;;5030669;28;20446;-86
2021/07/31 01:45:24;;;;;;;4.50;3.30;;;21.00;99.90;;;;;;5016057;28;20461;-87
2021/07/31 01:47:50;;;;;;;3.90;3.10;;;21.00;99.90;;;;;;5016469;28;20485;-86
2021/07/31 01:50:17;;;;;;;4.67;3.83;;;21.00;99.90;;;;;;5021486;28;20446;-86
2021/07/31 01:52:44;;;;;;;3.70;3.40;;;20.90;99.90;;;;;;5031733;28;20459;-86
2021/07/31 01:55:12;;;;;;;6.63;3.60;;;20.90;99.90;;;;;;5047950;28;20440;-87
2021/07/31 01:57:40;;;;;;;4.50;3.27;;;20.90;99.90;;;;;;5036070;28;20437;-87
2021/07/31 02:00:08;;;;;;;3.73;3.43;;;21.00;99.90;;;;;;5036177;28;20465;-87
2021/07/31 02:02:35;;;;;;;4.70;4.13;;;21.00;99.90;;;;;;5034640;28;20830;-87
2021/07/31 02:05:02;;;;;;;5.73;3.30;;;20.90;99.90;;;;;;5021435;28;20442;-86
2021/07/31 02:07:29;;;;;;;4.40;3.53;;;20.90;99.90;;;;;;5030007;28;20484;-86
2021/07/31 02:09:55;;;;;;;3.40;2.87;;;20.80;99.90;;;;;;5031629;28;20454;-86
2021/07/31 02:12:22;;;;;;;6.23;2.80;;;20.70;99.90;;;;;;5021051;28;20964;-87
2021/07/31 02:14:50;;;;;;;4.53;2.90;;;20.70;99.90;;;;;;5035115;28;20972;-86
2021/07/31 02:17:16;;;;;;;3.40;3.10;;;20.70;99.90;;;;;;5035640;28;20441;-86
2021/07/31 02:19:43;;;;;;;7.60;2.80;;;20.60;99.90;;;;;;5034563;28;20483;-86
2021/07/31 02:22:10;;;;;;;3.23;3.00;;;20.50;99.90;;;;;;5035411;28;20453;-86
2021/07/31 02:24:37;;;;;;;4.90;3.00;;;20.40;99.90;;;;;;5046798;28;20429;-86
2021/07/31 02:27:04;;;;;;;4.07;2.70;;;20.40;99.90;;;;;;5058061;28;20569;-88
2021/07/31 02:29:30;;;;;;;5.03;3.33;;;20.30;99.90;;;;;;5047013;28;20473;-86
2021/07/31 02:31:58;;;;;;;5.60;2.60;;;20.20;99.90;;;;;;5036413;28;20426;-86
2021/07/31 02:34:25;;;;;;;4.37;3.00;;;20.10;99.90;;;;;;5036766;28;20475;-86
2021/07/31 02:36:52;;;;;;;3.40;2.50;;;20.00;99.90;;;;;;5037712;28;20456;-87
2021/07/31 02:39:18;;;;;;;3.70;2.73;;;19.90;99.90;;;;;;5033603;28;20491;-87
2021/07/31 02:41:45;;;;;;;4.47;2.90;;;19.80;99.90;;;;;;5047323;28;20447;-87
2021/07/31 02:44:11;;;;;;;4.30;2.73;;;19.70;99.90;;;;;;5041293;28;20464;-87
2021/07/31 02:46:38;;;;;;;4.70;2.43;;;19.60;99.90;;;;;;5039812;28;20459;-86
2021/07/31 02:49:06;;;;;;;4.03;2.90;;;19.50;99.90;;;;;;5033635;28;20456;-86
2021/07/31 02:51:33;;;;;;;3.50;2.90;;;19.50;99.90;;;;;;5043137;28;20439;-86
2021/07/31 02:53:59;;;;;;;3.87;2.50;;;19.40;99.90;;;;;;5038363;28;20456;-87
2021/07/31 02:56:26;;;;;;;5.07;2.57;;;19.50;99.90;;;;;;5038686;28;20455;-86
2021/07/31 02:58:53;;;;;;;5.87;2.50;;;19.30;99.90;;;;;;5029913;28;20537;-87
2021/07/31 03:01:19;;;;;;;4.13;2.60;;;19.20;99.90;;;;;;5015936;28;20443;-87
2021/07/31 03:03:46;;;;;;;5.40;2.60;;;19.20;99.90;;;;;;5015630;28;20468;-87
2021/07/31 03:06:14;;;;;;;5.07;2.00;;;19.20;99.90;;;;;;5015302;28;20448;-86
2021/07/31 03:08:41;;;;;;;4.83;2.40;;;19.10;99.90;;;;;;5021249;28;20490;-86
2021/07/31 03:11:09;;;;;;;2.77;2.00;;;19.00;99.90;;;;;;5035012;28;20459;-86
2021/07/31 03:13:36;;;;;;;2.30;2.00;;;19.00;99.90;;;;;;5035143;28;20966;-86
2021/07/31 03:16:02;;;;;;;4.03;2.53;;;19.00;99.90;;;;;;5029901;28;20477;-85
2021/07/31 03:18:29;;;;;;;5.40;2.43;;;19.00;99.90;;;;;;5025750;28;20478;-86
2021/07/31 03:20:56;;;;;;;4.93;2.13;;;18.90;99.90;;;;;;5023232;28;20449;-86
2021/07/31 03:23:25;;;;;;;2.60;1.77;;;18.90;99.90;;;;;;5015290;28;20443;-86
2021/07/31 03:25:57;;;;;;;4.87;2.50;;;18.80;99.90;;;;;;5019939;28;20466;-86
2021/07/31 03:28:24;;;;;;;3.10;1.63;;;18.80;99.90;;;;;;5040922;28;21047;-86
2021/07/31 03:30:51;;;;;;;4.27;2.13;;;18.70;99.90;;;;;;5037847;28;20438;-86
2021/07/31 03:33:18;;;;;;;3.73;1.77;;;18.60;99.90;;;;;;5034990;28;20453;-86
2021/07/31 03:35:45;;;;;;;3.30;1.70;;;18.50;99.90;;;;;;5032362;28;20557;-86
2021/07/31 03:38:12;;;;;;;4.10;1.90;;;18.50;99.90;;;;;;5017980;28;20543;-87
2021/07/31 03:40:40;;;;;;;4.67;2.03;;;18.50;99.90;;;;;;5021879;28;20453;-88
2021/07/31 03:43:07;;;;;;;3.80;2.67;;;18.50;99.90;;;;;;5015837;28;20448;-87
2021/07/31 03:45:34;;;;;;;3.80;2.90;;;18.50;99.90;;;;;;5015008;28;21065;-88
2021/07/31 03:48:00;;;;;;;3.77;2.87;;;18.40;99.90;;;;;;5036842;28;20448;-87
2021/07/31 03:50:27;;;;;;;5.37;3.23;;;18.40;99.90;;;;;;5039477;28;20450;-87
2021/07/31 03:52:54;;;;;;;4.97;2.90;;;18.40;99.90;;;;;;5038840;28;20458;-84
2021/07/31 03:55:21;;;;;;;4.53;2.83;;;18.30;99.90;;;;;;5051230;28;20441;-87
2021/07/31 03:57:51;;;;;;;3.57;2.83;;;18.30;99.90;;;;;;5055791;28;20490;-88
2021/07/31 04:00:18;;;;;;;3.97;3.57;;;18.30;99.90;;;;;;5041721;28;20454;-87
2021/07/31 04:02:45;;;;;;;9.00;3.80;;;18.30;99.90;;;;;;5038396;28;20846;-86
2021/07/31 04:05:12;;;;;;;4.30;3.40;;;18.20;99.90;;;;;;5038445;28;20956;-87
2021/07/31 04:07:38;;;;;;;4.80;4.37;;;18.20;99.90;;;;;;5037573;28;20450;-87
2021/07/31 04:10:06;;;;;;;4.63;3.60;;;18.10;99.90;;;;;;5038731;28;20468;-85
2021/07/31 04:12:33;;;;;;;4.07;3.50;;;18.10;99.90;;;;;;5040446;28;20444;-86
2021/07/31 04:15:01;;;;;;;10.33;4.40;;;18.10;99.90;;;;;;5036237;28;20455;-87
2021/07/31 04:17:27;;;;;;;7.80;4.27;;;18.10;99.90;;;;;;5020932;28;20481;-86
2021/07/31 04:19:54;;;;;;;4.67;4.20;;;18.10;99.90;;;;;;5018811;28;20467;-86
2021/07/31 04:22:21;;;;;;;6.87;4.03;;;18.00;99.90;;;;;;5018706;28;20444;-87
2021/07/31 04:24:47;;;;;;;4.27;3.10;;;18.00;99.90;;;;;;5026447;28;20459;-86
2021/07/31 04:27:14;;;;;;;5.57;3.93;;;17.90;99.90;;;;;;5038444;28;20437;-86
2021/07/31 04:29:41;;;;;;;4.83;3.83;;;18.00;99.90;;;;;;5038067;28;20471;-86
2021/07/31 04:32:09;;;;;;;6.50;3.87;;;18.00;99.90;;;;;;5050149;28;20502;-87
2021/07/31 04:34:36;;;;;;;4.20;3.80;;;18.10;99.90;;;;;;5034468;28;20449;-86
2021/07/31 04:37:04;;;;;;;4.00;3.50;;;18.00;99.90;;;;;;5018351;28;20450;-88
2021/07/31 04:39:31;;;;;;;4.73;3.37;;;18.10;99.90;;;;;;5031876;28;20493;-87
2021/07/31 04:41:57;;;;;;;3.93;3.60;;;18.00;99.90;;;;;;5037696;28;20452;-84
2021/07/31 04:44:24;;;;;;;5.23;2.97;;;18.00;99.90;;;;;;5039133;28;20449;-85
2021/07/31 04:46:51;;;;;;;5.07;3.30;;;18.00;99.90;;;;;;5039146;28;20453;-86
2021/07/31 04:49:19;;;;;;;5.20;2.97;;;18.00;99.90;;;;;;5018142;28;20473;-86
2021/07/31 04:51:46;;;;;;;4.50;3.20;;;18.10;99.90;;;;;;5017253;28;20455;-86
2021/07/31 04:54:12;;;;;;;4.67;3.33;;;18.10;99.90;;;;;;5035066;28;20428;-88
2021/07/31 04:56:39;;;;;;;4.40;3.40;;;18.30;99.90;;;;;;5039466;28;20452;-88
2021/07/31 04:59:06;;;;;;;4.10;3.10;;;18.30;99.90;;;;;;5022839;28;20489;-86
2021/07/31 05:01:32;;;;;;;5.60;3.30;;;18.40;99.90;;;;;;5040343;28;20416;-87
2021/07/31 05:03:59;;;;;;;3.90;2.80;;;18.40;99.90;;;;;;5039708;28;20458;-87
2021/07/31 05:06:27;;;;;;;4.37;2.70;;;18.50;99.90;;;;;;5025690;28;20454;-87
2021/07/31 05:08:54;;;;;;;8.43;3.17;;;18.50;99.90;;;;;;5018041;28;20849;-87
2021/07/31 05:11:21;;;;;;;5.67;2.80;;;18.70;99.90;;;;;;5018608;28;20927;-87
2021/07/31 05:13:48;;;;;;;8.10;3.23;;;19.10;99.90;;;;;;5032175;28;20452;-87
2021/07/31 05:16:16;;;;;;;4.37;2.33;;;19.60;99.90;;;;;;5039771;28;20445;-86
2021/07/31 05:18:42;;;;;;;4.97;2.80;;;20.10;99.90;;;;;;5040419;28;20489;-87
2021/07/31 05:21:09;;;;;;;5.67;2.70;;;20.60;99.80;;;;;;5048312;28;20452;-86
2021/07/31 05:23:38;;;;;;;2.60;2.13;;;20.90;98.10;;;;;;5040274;28;20456;-87
2021/07/31 05:26:08;;;;;;;3.30;2.13;;;21.20;96.80;;;;;;5029100;28;20946;-87
2021/07/31 05:28:35;;;;;;;7.00;2.43;;;21.60;96.50;;;;;;5017291;28;20468;-86
2021/07/31 05:31:02;;;;;;;3.97;2.23;;;21.90;95.10;;;;;;5017099;28;20944;-86
2021/07/31 05:33:28;;;;;;;5.50;2.10;;;22.20;94.20;;;;;;5017299;28;20824;-86
2021/07/31 05:35:55;;;;;;;4.83;2.30;;;22.60;93.40;;;;;;5021789;28;20452;-86
2021/07/31 05:38:22;;;;;;;2.77;2.17;;;22.90;92.90;;;;;;5044758;28;20473;-85
2021/07/31 05:40:50;;;;;;;5.10;2.10;;;23.30;91.70;;;;;;5053212;28;20460;-84
2021/07/31 05:43:16;;;;;;;3.63;1.90;;;23.30;91.00;;;;;;5053439;28;20450;-84
2021/07/31 05:45:43;;;;;;;2.50;2.30;;;23.70;90.70;;;;;;5044453;28;20438;-85
2021/07/31 05:48:11;;;;;;;5.70;2.10;;;23.90;88.60;;;;;;5053950;28;20467;-85
2021/07/31 05:50:38;;;;;;;4.00;1.87;;;24.20;88.60;;;;;;5018151;28;20465;-87
2021/07/31 05:53:05;;;;;;;14.30;12.90;;;24.70;86.90;;;;;;5016649;28;20564;-86
2021/07/31 05:55:32;;;;;;;3.50;2.30;;;24.70;83.70;;;;;;5015402;28;20453;-85
2021/07/31 05:58:01;;;;;;;3.90;2.10;;;24.80;84.70;;;;;;5016586;28;20489;-87
2021/07/31 06:00:28;;;;;;;3.27;2.23;;;25.00;83.70;;;;;;5033345;28;20453;-87
2021/07/31 06:02:55;;;;;;;6.17;2.80;;;25.30;82.70;;;;;;5035145;28;20442;-87
2021/07/31 06:05:21;;;;;;;2.73;1.70;;;26.00;81.00;;;;;;5034465;28;20446;-86
2021/07/31 06:07:48;;;;;;;5.43;2.63;;;26.30;77.90;;;;;;5031435;28;20464;-86
2021/07/31 06:10:15;;;;;;;4.23;2.20;;;26.50;77.80;;;;;;5013639;28;20443;-86
2021/07/31 06:12:41;;;;;;;4.10;2.13;;;27.00;75.10;;;;;;5016076;28;20482;-85
2021/07/31 06:15:10;;;;;;;3.37;1.97;;;27.30;73.50;;;;;;5026282;28;20446;-86
2021/07/31 06:17:37;;;;;;;3.93;1.90;;;27.70;71.90;;;;;;5033764;28;20430;-86
2021/07/31 06:20:04;;;;;;;3.30;1.93;;;27.90;68.30;;;;;;5036089;28;20466;-86
2021/07/31 06:22:31;;;;;;;4.40;2.03;;;28.20;66.40;;;;;;5033227;28;20442;-86
2021/07/31 06:24:58;;;;;;;6.57;5.87;;;28.50;65.40;;;;;;5031616;28;20442;-86
2021/07/31 06:27:24;;;;;;;3.53;2.07;;;28.70;63.30;;;;;;5022155;28;20428;-86
2021/07/31 06:29:56;;;;;;;4.70;1.80;;;28.80;62.60;;;;;;5038447;28;20443;-86
2021/07/31 06:32:31;;;;;;;2.40;1.60;;;29.20;61.80;;;;;;5036727;28;20514;-86
2021/07/31 06:34:58;;;;;;;3.60;1.90;;;29.10;59.90;;;;;;5034830;28;20433;-86
2021/07/31 06:37:24;;;;;;;3.73;2.20;;;29.20;60.00;;;;;;5033506;28;20449;-86
2021/07/31 06:39:51;;;;;;;4.50;2.10;;;29.70;59.70;;;;;;5018597;28;20494;-86
2021/07/31 06:42:18;;;;;;;4.13;1.60;;;29.30;58.80;;;;;;5013792;28;20462;-86
2021/07/31 06:44:44;;;;;;;6.00;1.97;;;28.60;58.90;;;;;;5014275;28;20446;-85
2021/07/31 06:47:13;;;;;;;2.67;2.30;;;28.20;59.90;;;;;;5014271;28;20466;-86
2021/07/31 06:49:42;;;;;;;3.20;2.33;;;28.10;59.80;;;;;;5014691;28;20633;-87
2021/07/31 06:52:08;;;;;;;2.60;1.80;;;27.40;59.30;;;;;;5021030;28;20575;-87
2021/07/31 06:54:35;;;;;;;6.80;2.43;;;27.60;61.10;;;;;;5021951;28;20536;-85
2021/07/31 06:57:02;;;;;;;5.03;1.87;;;28.40;59.90;;;;;;5025340;28;20446;-85
2021/07/31 06:59:28;;;;;;;3.27;1.90;;;29.20;58.60;;;;;;5033176;28;20489;-85
2021/07/31 07:01:55;;;;;;;3.43;1.77;;;29.90;57.10;;;;;;5036104;28;20956;-86
2021/07/31 07:04:22;;;;;;;3.33;2.10;;;30.30;55.40;;;;;;5035234;28;20940;-86
2021/07/31 07:06:50;;;;;;;5.23;1.87;;;30.90;55.00;;;;;;5024491;28;20810;-86
2021/07/31 07:09:16;;;;;;;3.70;2.30;;;30.90;53.00;;;;;;5036689;22;20493;-83
2021/07/31 07:11:43;;;;;;;3.93;2.50;;;31.20;53.80;;;;;;5038429;28;20452;-82
2021/07/31 07:14:10;;;;;;;3.30;1.70;;;31.00;53.10;;;;;;5035939;28;20813;-82
2021/07/31 07:16:37;;;;;;;2.93;1.77;;;30.90;51.60;;;;;;5028547;28;20454;-82
2021/07/31 07:19:04;;;;;;;4.20;1.73;;;31.10;51.80;;;;;;5016218;28;20496;-82
2021/07/31 07:21:30;;;;;;;3.10;2.00;;;31.30;51.50;;;;;;5018255;28;20453;-82
2021/07/31 07:23:59;;;;;;;5.00;1.90;;;31.80;50.40;;;;;;5020201;28;20949;-82
2021/07/31 07:26:25;;;;;;;3.17;1.27;;;32.20;49.50;;;;;;5025610;28;20454;-83
2021/07/31 07:28:52;;;;;;;3.33;1.73;;;32.30;48.80;;;;;;5021052;28;20466;-82
2021/07/31 07:31:19;;;;;;;4.50;1.93;;;32.70;48.40;;;;;;5020551;28;20441;-82
2021/07/31 07:33:45;;;;;;;3.20;1.60;;;32.90;47.60;;;;;;5024843;28;20450;-83
2021/07/31 07:36:14;;;;;;;3.67;1.70;;;33.00;46.60;;;;;;5039437;28;20481;-82
2021/07/31 07:38:40;;;;;;;2.00;1.20;;;33.10;46.90;;;;;;5031417;28;20481;-81
2021/07/31 07:41:09;;;;;;;3.10;1.73;;;33.70;46.40;;;;;;5037463;28;20433;-82
2021/07/31 07:43:37;;;;;;;4.20;1.60;;;34.10;45.10;;;;;;5027961;28;20452;-82
2021/07/31 07:46:04;;;;;;;3.67;1.60;;;34.30;44.80;;;;;;5027807;28;20442;-82
2021/07/31 07:48:32;;;;;;;3.57;1.93;;;34.00;44.70;;;;;;5034057;28;20472;-82
2021/07/31 07:50:58;;;;;;;2.73;2.53;;;34.10;44.90;;;;;;5030602;28;20524;-83
2021/07/31 07:53:25;;;;;;;8.03;2.10;;;34.40;44.50;;;;;;5037663;28;20456;-83
2021/07/31 07:55:52;;;;;;;2.67;1.53;;;35.20;43.60;;;;;;5025516;28;20446;-82
2021/07/31 07:58:20;;;;;;;4.20;1.90;;;35.40;43.10;;;;;;5019289;28;20481;-82
2021/07/31 08:00:46;;;;;;;3.07;2.10;;;35.10;43.50;;;;;;5019552;28;20461;-82
2021/07/31 08:03:14;;;;;;;3.13;2.10;;;34.00;43.70;;;;;;5023098;28;20460;-82
2021/07/31 08:05:41;;;;;;;3.70;1.70;;;32.80;45.60;;;;;;5019881;28;20453;-82
2021/07/31 08:08:08;;;;;;;2.70;1.93;;;33.30;46.20;;;;;;5019670;28;21026;-83
2021/07/31 08:10:36;;;;;;;4.07;1.80;;;33.80;45.70;;;;;;5022621;28;20473;-82
2021/07/31 08:13:03;;;;;;;2.83;1.70;;;33.40;45.20;;;;;;5025795;28;20453;-82
2021/07/31 08:15:31;;;;;;;4.83;2.00;;;32.40;46.30;;;;;;5025941;28;20442;-81
2021/07/31 08:17:58;;;;;;;3.77;2.40;;;30.80;48.30;;;;;;5026187;28;20441;-81
2021/07/31 08:20:25;;;;;;;4.73;2.40;;;30.10;50.80;;;;;;5034983;28;20480;-81
2021/07/31 08:22:52;;;;;;;4.37;1.90;;;29.80;51.00;;;;;;5038121;28;20445;-82
2021/07/31 08:25:19;;;;;;;2.37;1.67;;;29.70;51.40;;;;;;5026665;28;20442;-82
2021/07/31 08:27:45;;;;;;;5.07;1.90;;;30.10;50.00;;;;;;5025931;28;20452;-81
2021/07/31 08:30:13;;;;;;;3.43;1.80;;;30.00;49.90;;;;;;5026795;28;20469;-81
2021/07/31 08:32:42;;;;;;;5.03;1.70;;;29.50;50.50;;;;;;5024139;28;20473;-81
2021/07/31 08:35:10;;;;;;;2.50;1.77;;;28.90;51.40;;;;;;5025138;28;20449;-81
2021/07/31 08:37:38;;;;;;;4.17;1.90;;;30.00;50.90;;;;;;5026124;28;20450;-81
2021/07/31 08:40:08;;;;;;;3.57;1.90;;;30.60;49.20;;;;;;5025041;28;21017;-82
2021/07/31 08:42:36;;;;;;;3.67;2.03;;;30.40;48.50;;;;;;5026399;28;20482;-81
2021/07/31 08:45:03;;;;;;;3.83;2.20;;;31.30;48.00;;;;;;5026096;28;20851;-80
2021/07/31 08:47:30;;;;;;;4.33;1.73;;;32.00;47.20;;;;;;5024354;28;20442;-79
2021/07/31 08:49:59;;;;;;;2.80;1.67;;;31.10;47.80;;;;;;5025462;28;20469;-80
2021/07/31 08:52:31;;;;;;;4.97;2.23;;;29.20;49.40;;;;;;5026937;28;20449;-80
2021/07/31 08:54:58;;;;;;;2.10;1.77;;;29.30;50.30;;;;;;5039041;28;20506;-79
2021/07/31 08:57:25;;;;;;;4.97;2.10;;;29.10;51.20;;;;;;5035592;28;20437;-80
2021/07/31 08:59:53;;;;;;;2.80;1.87;;;28.50;51.90;;;;;;5029865;28;21015;-80
2021/07/31 09:02:20;;;;;;;4.50;1.87;;;29.30;51.40;;;;;;5036907;28;20489;-82
2021/07/31 09:04:48;;;;;;;6.33;2.40;;;29.20;52.10;;;;;;5036184;28;20437;-80
2021/07/31 09:07:16;;;;;;;5.07;2.30;;;29.70;51.50;;;;;;5033216;28;20942;-79
2021/07/31 09:09:43;;;;;;;4.73;1.97;;;30.10;51.50;;;;;;5035770;28;20478;-82
2021/07/31 09:12:11;;;;;;;4.20;1.93;;;30.40;49.50;;;;;;5044049;28;20464;-82
2021/07/31 09:14:46;;;;;;;2.97;1.90;;;30.40;50.60;;;;;;5039298;28;20441;-89
2021/07/31 09:17:31;;;;;;;2.07;1.87;;;29.10;51.30;;;;;;5042672;28;20505;-88
2021/07/31 09:19:58;;;;;;;4.30;2.00;;;28.30;53.20;;;;;;5028813;28;20482;-89
2021/07/31 09:22:26;;;;;;;4.43;1.90;;;28.60;55.10;;;;;;5020291;28;20469;-90
2021/07/31 09:25:09;;;;;;;2.00;1.80;;;30.30;51.70;;;;;;5019068;28;20461;-90
2021/07/31 09:27:36;;;;;;;3.63;1.87;;;31.60;48.30;;;;;;5030152;28;20442;-89
2021/07/31 09:30:05;;;;;;;3.10;2.13;;;32.50;46.90;;;;;;5030245;28;20473;-88
2021/07/31 09:32:43;;;;;;;3.47;2.13;;;33.30;45.20;;;;;;5022611;28;20456;-89
2021/07/31 09:35:21;;;;;;;2.50;1.63;;;33.40;45.00;;;;;;5020300;28;20445;-88
2021/07/31 09:37:51;;;;;;;1.70;1.43;;;33.40;45.10;;;;;;5041410;28;20810;-90
2021/07/31 09:40:31;;;;;;;2.80;1.70;;;33.60;44.50;;;;;;5041821;28;20485;-90
2021/07/31 09:43:12;;;;;;;5.73;2.07;;;34.50;42.70;;;;;;5041917;28;20460;-90
2021/07/31 09:45:40;;;;;;;3.23;2.03;;;34.80;43.40;;;;;;5043761;28;20520;-91
2021/07/31 09:48:09;;;;;;;5.10;2.10;;;37.00;41.10;;;;;;5024095;28;20952;-89
2021/07/31 09:50:38;;;;;;;2.50;1.90;;;37.30;39.50;;;;;;5022905;28;20486;-89
2021/07/31 09:53:14;;;;;;;2.93;1.70;;;38.60;38.40;;;;;;5022256;28;20899;-88
2021/07/31 09:55:46;;;;;;;2.27;1.60;;;39.70;36.70;;;;;;5022261;28;20454;-89
2021/07/31 09:58:17;;;;;;;3.83;1.97;;;38.20;36.60;;;;;;5041542;28;20449;-88
2021/07/31 10:00:45;;;;;;;4.13;1.83;;;35.50;39.50;;;;;;5047276;28;20528;-89
2021/07/31 10:03:13;;;;;;;2.43;1.47;;;34.50;41.40;;;;;;5041909;28;20449;-90
2021/07/31 10:05:42;;;;;;;3.20;2.50;;;34.80;41.70;;;;;;5022392;28;20507;-90
2021/07/31 10:08:10;;;;;;;3.40;1.90;;;35.10;40.90;;;;;;5021233;28;20541;-90
2021/07/31 10:10:40;;;;;;;3.67;1.83;;;36.10;40.70;;;;;;5020931;28;20585;-91
2021/07/31 10:13:07;;;;;;;3.70;2.07;;;37.80;38.10;;;;;;5022203;28;20938;-90
2021/07/31 10:15:34;;;;;;;2.93;1.90;;;37.80;37.10;;;;;;5020736;28;20461;-90
2021/07/31 10:18:10;;;;;;;3.50;2.40;;;38.20;36.70;;;;;;5021407;28;20430;-90
2021/07/31 10:20:37;;;;;;;4.83;1.97;;;38.40;35.00;;;;;;5022850;28;20548;-90
2021/07/31 10:23:07;;;;;;;2.90;1.33;;;38.90;34.40;;;;;;5025293;28;20461;-90
2021/07/31 10:25:34;;;;;;;1.97;1.77;;;39.80;33.20;;;;;;5023719;28;20868;-89
2021/07/31 10:28:25;;;;;;;2.57;1.80;;;40.80;31.80;;;;;;5024315;28;20529;-91
2021/07/31 10:30:54;;;;;;;3.87;1.43;;;42.40;30.60;;;;;;5039300;28;20477;-90
2021/07/31 10:34:00;;;;;;;3.00;1.70;;;41.70;30.20;;;;;;5042346;28;20476;-90
2021/07/31 10:36:34;;;;;;;4.60;2.20;;;40.30;31.10;;;;;;5028603;28;20473;-89
2021/07/31 10:39:44;;;;;;;3.23;1.60;;;38.10;33.10;;;;;;5037899;28;20909;-90
2021/07/31 10:42:18;;;;;;;3.50;2.47;;;37.10;34.60;;;;;;5036797;28;20453;-90
2021/07/31 10:45:23;;;;;;;2.10;1.63;;;37.60;34.30;;;;;;5038657;28;20414;-90
2021/07/31 10:47:52;;;;;;;3.87;1.70;;;39.10;32.50;;;;;;5036728;28;20441;-90
2021/07/31 10:50:41;;;;;;;2.27;1.80;;;40.10;31.00;;;;;;5036214;28;20568;-90
2021/07/31 10:53:10;;;;;;;3.53;1.90;;;41.10;30.00;;;;;;5039967;28;20406;-90
2021/07/31 10:56:00;;;;;;;4.23;1.60;;;41.80;29.10;;;;;;5041590;28;20441;-90
2021/07/31 10:58:29;;;;;;;2.53;1.90;;;41.50;29.00;;;;;;5033562;28;20456;-92
2021/07/31 11:01:23;;;;;;;2.90;1.50;;;41.60;29.00;;;;;;5029588;28;20521;-91
2021/07/31 11:03:50;;;;;;;3.03;1.63;;;40.80;28.80;;;;;;5017807;28;20508;-91
2021/07/31 11:06:17;;;;;;;2.60;1.93;;;41.30;29.10;;;;;;5017382;28;20431;-90
2021/07/31 11:09:11;;;;;;;2.60;1.70;;;41.90;28.40;;;;;;5034845;28;20473;-90
2021/07/31 11:11:38;;;;;;;3.03;1.87;;;39.70;30.00;;;;;;5035999;28;20449;-90
2021/07/31 11:14:06;;;;;;;3.90;2.20;;;39.50;30.00;;;;;;5036981;28;20933;-90
2021/07/31 11:16:35;;;;;;;1.90;1.70;;;40.30;29.50;;;;;;5047810;28;20827;-90
2021/07/31 11:19:02;;;;;;;3.10;2.00;;;40.80;29.30;;;;;;5044794;28;20472;-90
2021/07/31 11:21:31;;;;;;;2.73;1.50;;;40.30;29.20;;;;;;5037081;28;20449;-90
2021/07/31 11:24:00;;;;;;;2.57;2.07;;;40.10;29.00;;;;;;5045404;28;20451;-90
2021/07/31 11:26:45;;;;;;;2.40;1.70;;;39.90;29.00;;;;;;5052973;28;20457;-90
2021/07/31 11:29:14;;;;;;;2.77;1.40;;;39.60;29.30;;;;;;5034217;28;20458;-91
2021/07/31 11:31:45;;;;;;;3.07;1.93;;;38.50;29.90;;;;;;5034704;28;20450;-90
2021/07/31 11:34:13;;;;;;;3.10;2.20;;;36.80;31.90;;;;;;5026145;28;20541;-90
2021/07/31 11:36:42;;;;;;;3.20;2.20;;;35.60;33.50;;;;;;5018736;28;20505;-90
2021/07/31 11:39:10;;;;;;;3.83;2.20;;;36.10;32.80;;;;;;5014719;28;20451;-90
2021/07/31 11:41:42;;;;;;;4.20;1.93;;;37.40;33.00;;;;;;5014197;28;20477;-90
2021/07/31 11:44:10;;;;;;;2.60;1.87;;;37.60;32.80;;;;;;5015302;28;20454;-90
2021/07/31 11:46:39;;;;;;;2.73;1.97;;;39.00;31.30;;;;;;5018012;28;20450;-89
2021/07/31 11:49:10;;;;;;;3.87;2.87;;;40.20;30.00;;;;;;5018546;28;20497;-90
2021/07/31 11:51:45;;;;;;;6.80;2.53;;;40.60;29.60;;;;;;5035547;28;20438;-92
2021/07/31 11:54:13;;;;;;;2.93;1.57;;;39.70;29.90;;;;;;5055951;28;20440;-90
2021/07/31 11:56:41;;;;;;;3.73;2.10;;;39.30;30.30;;;;;;5056678;28;20442;-92
2021/07/31 11:59:08;;;;;;;4.03;1.67;;;40.60;29.90;;;;;;5056730;28;20457;-90
2021/07/31 12:01:36;;;;;;;2.77;1.80;;;41.50;28.70;;;;;;5057221;28;20461;-93
2021/07/31 12:04:03;;;;;;;3.47;1.87;;;40.30;28.90;;;;;;5036529;28;20478;-90
2021/07/31 12:06:39;;;;;;;2.47;2.00;;;38.30;30.50;;;;;;5028167;28;20454;-90
2021/07/31 12:09:24;;;;;;;3.13;1.80;;;36.00;33.40;;;;;;5038685;28;20464;-90
2021/07/31 12:11:53;;;;;;;2.97;2.30;;;34.60;36.00;;;;;;5041123;28;20391;-91
2021/07/31 12:14:40;;;;;;;4.27;2.30;;;33.30;37.60;;;;;;5058494;28;20473;-90
2021/07/31 12:17:18;;;;;;;4.80;2.27;;;32.50;39.00;;;;;;5056956;28;20523;-90
2021/07/31 12:19:47;;;;;;;2.53;1.60;;;31.60;39.70;;;;;;5048432;28;20469;-91
2021/07/31 12:22:16;;;;;;;4.57;2.10;;;31.10;40.90;;;;;;5045246;28;20453;-90
2021/07/31 12:24:44;;;;;;;4.63;2.27;;;30.80;41.90;;;;;;5044030;28;20434;-89
2021/07/31 12:27:11;;;;;;;3.03;1.80;;;30.50;41.90;;;;;;5041661;28;20828;-90
2021/07/31 12:29:39;;;;;;;2.90;2.00;;;30.40;42.00;;;;;;5039043;28;20479;-89
2021/07/31 12:32:23;;;;;;;2.63;2.00;;;30.50;42.20;;;;;;5040440;28;20454;-89
2021/07/31 12:34:52;;;;;;;2.90;2.27;;;30.40;42.10;;;;;;5039812;28;20456;-90
2021/07/31 12:37:21;;;;;;;2.80;2.00;;;30.20;43.20;;;;;;5039072;28;20468;-89
2021/07/31 12:39:51;;;;;;;3.23;2.50;;;30.00;44.40;;;;;;5037237;28;20480;-89
2021/07/31 12:42:19;;;;;;;2.90;2.20;;;30.20;44.10;;;;;;5036375;28;20448;-89
2021/07/31 12:44:46;;;;;;;3.40;2.47;;;30.20;44.30;;;;;;5037570;28;20457;-89
2021/07/31 12:47:13;;;;;;;6.33;2.40;;;31.00;43.30;;;;;;5038251;28;20448;-89
2021/07/31 12:49:39;;;;;;;4.37;2.33;;;31.30;42.50;;;;;;5027230;28;20561;-90
2021/07/31 12:52:07;;;;;;;5.37;2.00;;;32.70;40.80;;;;;;5019359;28;20454;-90
2021/07/31 12:54:35;;;;;;;4.10;2.00;;;35.40;39.00;;;;;;5018528;28;20836;-90
2021/07/31 12:57:03;;;;;;;3.30;1.80;;;36.10;35.70;;;;;;5016750;28;20461;-90
2021/07/31 12:59:30;;;;;;;3.97;2.83;;;36.90;35.10;;;;;;5026383;28;20523;-90
2021/07/31 13:01:56;;;;;;;2.37;2.03;;;37.90;33.60;;;;;;5045189;28;20453;-91
2021/07/31 13:04:25;;;;;;;8.83;1.90;;;38.70;31.40;;;;;;5040372;28;20440;-89
2021/07/31 13:06:52;;;;;;;3.23;1.97;;;36.80;32.90;;;;;;5041331;28;20957;-90
2021/07/31 13:09:19;;;;;;;3.10;1.53;;;35.20;34.80;;;;;;5065448;22;20923;-89
2021/07/31 13:11:48;;;;;;;4.73;2.13;;;34.60;36.30;;;;;;5036979;28;20488;-89
2021/07/31 13:14:14;;;;;;;2.00;1.70;;;35.30;36.40;;;;;;5036584;28;20461;-90
2021/07/31 13:16:41;;;;;;;5.37;3.30;;;36.30;34.50;;;;;;5036033;28;20813;-89
2021/07/31 13:19:08;;;;;;;4.03;3.40;;;36.90;33.30;;;;;;5040028;28;20834;-89